createdAt,value
2018-05-31T00:00:51.936Z,13.47
2018-05-31T00:03:20.869Z,13.30
2018-05-31T00:05:49.781Z,14.07
2018-05-31T00:08:18.800Z,12.70
2018-05-31T00:10:47.763Z,13.63
2018-05-31T00:13:16.039Z,12.07
2018-05-31T00:15:44.226Z,13.80
2018-05-31T00:18:13.146Z,12.77
2018-05-31T00:20:41.328Z,12.30
2018-05-31T00:23:09.583Z,11.83
2018-05-31T00:25:38.559Z,12.07
2018-05-31T00:28:07.471Z,11.33
2018-05-31T00:30:35.660Z,11.30
2018-05-31T00:33:03.838Z,10.97
2018-05-31T00:35:32.041Z,12.07
2018-05-31T00:38:00.333Z,11.20
2018-05-31T00:40:29.335Z,11.40
2018-05-31T00:42:57.499Z,11.20
2018-05-31T00:45:25.674Z,11.63
2018-05-31T00:47:53.877Z,11.03
2018-05-31T00:50:22.056Z,10.93
2018-05-31T00:52:50.214Z,11.07
2018-05-31T00:58:27.162Z,11.10
2018-05-31T01:00:55.323Z,9.90
2018-05-31T01:03:23.632Z,10.47
2018-05-31T01:05:51.905Z,10.00
2018-05-31T01:08:20.183Z,11.50
2018-05-31T01:10:48.429Z,11.57
2018-05-31T01:13:16.573Z,10.60
2018-05-31T01:15:44.786Z,10.20
2018-05-31T01:18:12.991Z,10.93
2018-05-31T01:20:41.955Z,10.87
2018-05-31T01:23:10.200Z,10.80
2018-05-31T01:25:38.335Z,11.33
2018-05-31T01:28:07.252Z,10.57
2018-05-31T01:30:35.456Z,10.87
2018-05-31T01:33:03.633Z,10.60
2018-05-31T01:35:31.846Z,9.13
2018-05-31T01:38:18.629Z,10.53
2018-05-31T01:40:47.715Z,9.90
2018-05-31T01:43:15.891Z,10.60
2018-05-31T01:45:44.291Z,10.87
2018-05-31T01:48:12.435Z,10.53
2018-05-31T01:50:40.659Z,11.20
2018-05-31T01:53:08.990Z,10.40
2018-05-31T01:55:37.147Z,11.83
2018-05-31T01:58:05.418Z,11.00
2018-05-31T02:00:34.227Z,10.90
2018-05-31T02:03:02.397Z,11.50
2018-05-31T02:05:30.550Z,10.50
2018-05-31T02:07:58.729Z,11.00
2018-05-31T02:10:26.896Z,12.60
2018-05-31T02:12:55.036Z,12.00
2018-05-31T02:15:23.971Z,11.60
2018-05-31T02:17:52.160Z,12.00
2018-05-31T02:20:20.418Z,12.37
2018-05-31T02:22:48.625Z,11.17
2018-05-31T02:25:16.887Z,12.57
2018-05-31T02:27:45.044Z,11.43
2018-05-31T02:30:13.211Z,12.87
2018-05-31T02:32:41.358Z,12.80
2018-05-31T02:35:09.577Z,11.93
2018-05-31T02:37:38.385Z,11.93
2018-05-31T02:40:07.460Z,12.93
2018-05-31T02:42:35.623Z,12.90
2018-05-31T02:45:03.796Z,13.57
2018-05-31T02:47:31.978Z,13.40
2018-05-31T02:50:00.190Z,13.37
2018-05-31T02:52:28.346Z,14.80
2018-05-31T02:54:56.573Z,14.57
2018-05-31T02:57:24.813Z,13.10
2018-05-31T02:59:53.025Z,13.87
2018-05-31T03:02:21.248Z,12.50
2018-05-31T03:04:49.421Z,12.67
2018-05-31T03:07:18.366Z,13.33
2018-05-31T03:09:46.580Z,14.20
2018-05-31T03:12:15.529Z,13.10
2018-05-31T03:14:43.708Z,13.30
2018-05-31T03:17:11.960Z,13.20
2018-05-31T03:19:40.135Z,13.80
2018-05-31T03:22:08.363Z,13.23
2018-05-31T03:24:37.337Z,12.87
2018-05-31T03:27:05.573Z,13.57
2018-05-31T03:29:33.849Z,14.93
2018-05-31T03:32:02.121Z,13.70
2018-05-31T03:34:30.284Z,13.43
2018-05-31T03:36:58.442Z,13.30
2018-05-31T03:39:26.689Z,13.10
2018-05-31T03:41:55.654Z,13.10
2018-05-31T03:44:23.828Z,12.70
2018-05-31T03:46:51.975Z,12.57
2018-05-31T03:49:20.159Z,12.60
2018-05-31T03:51:48.361Z,12.80
2018-05-31T03:54:16.540Z,13.57
2018-05-31T03:56:44.704Z,11.93
2018-05-31T03:59:12.878Z,12.40
2018-05-31T04:01:41.070Z,12.90
2018-05-31T04:04:10.050Z,13.30
2018-05-31T04:06:38.323Z,12.67
2018-05-31T04:09:06.473Z,13.10
2018-05-31T04:11:34.766Z,13.80
2018-05-31T04:14:02.965Z,12.77
2018-05-31T04:16:31.924Z,12.47
2018-05-31T04:19:00.099Z,12.63
2018-05-31T04:21:28.292Z,12.60
2018-05-31T04:23:56.622Z,12.77
2018-05-31T04:26:24.776Z,11.37
2018-05-31T04:28:52.938Z,12.60
2018-05-31T04:31:21.155Z,12.90
2018-05-31T04:33:49.315Z,20.67
2018-05-31T04:36:17.462Z,12.20
2018-05-31T04:38:45.665Z,12.70
2018-05-31T04:41:13.818Z,12.67
2018-05-31T04:43:42.046Z,13.03
2018-05-31T04:46:10.323Z,12.97
2018-05-31T04:48:38.507Z,13.57
2018-05-31T04:51:07.451Z,11.90
2018-05-31T04:53:35.690Z,12.40
2018-05-31T04:56:04.665Z,13.40
2018-05-31T04:58:33.609Z,12.37
2018-05-31T05:01:01.888Z,13.80
2018-05-31T05:03:30.247Z,13.20
2018-05-31T05:05:58.444Z,13.20
2018-05-31T05:08:26.621Z,12.87
2018-05-31T05:10:54.918Z,13.10
2018-05-31T05:13:23.092Z,13.00
2018-05-31T05:15:51.233Z,13.60
2018-05-31T05:18:19.426Z,12.50
2018-05-31T05:20:47.631Z,12.80
2018-05-31T05:23:16.554Z,13.00
2018-05-31T05:25:44.745Z,12.03
2018-05-31T05:28:12.970Z,12.90
2018-05-31T05:30:41.893Z,12.83
2018-05-31T05:33:10.113Z,12.37
2018-05-31T05:35:38.258Z,12.93
2018-05-31T05:38:06.467Z,12.67
2018-05-31T05:40:35.401Z,13.70
2018-05-31T05:43:03.597Z,12.70
2018-05-31T05:45:31.758Z,11.70
2018-05-31T05:47:59.966Z,12.03
2018-05-31T05:50:28.160Z,11.67
2018-05-31T05:52:57.094Z,11.53
2018-05-31T05:55:25.329Z,13.70
2018-05-31T05:57:54.244Z,12.43
2018-05-31T06:00:22.401Z,11.83
2018-05-31T06:02:51.377Z,12.50
2018-05-31T06:05:20.322Z,13.70
2018-05-31T06:07:48.490Z,12.63
2018-05-31T06:10:16.728Z,12.67
2018-05-31T06:12:44.833Z,13.30
2018-05-31T06:15:13.034Z,11.57
2018-05-31T06:17:41.201Z,11.90
2018-05-31T06:20:09.414Z,12.10
2018-05-31T06:22:38.351Z,11.73
2018-05-31T06:25:06.543Z,12.80
2018-05-31T06:27:34.698Z,11.30
2018-05-31T06:30:02.908Z,12.30
2018-05-31T06:32:31.830Z,11.80
2018-05-31T06:35:00.043Z,10.83
2018-05-31T06:37:28.297Z,11.40
2018-05-31T06:39:57.184Z,10.87
2018-05-31T06:42:25.401Z,11.07
2018-05-31T06:44:53.610Z,10.90
2018-05-31T06:47:22.822Z,11.57
2018-05-31T06:49:50.987Z,10.90
2018-05-31T06:52:19.196Z,11.43
2018-05-31T06:54:47.481Z,9.77
2018-05-31T06:57:15.626Z,10.50
2018-05-31T06:59:43.813Z,10.80
2018-05-31T07:02:12.052Z,9.53
2018-05-31T07:04:41.078Z,9.50
2018-05-31T07:07:09.217Z,9.10
2018-05-31T07:09:38.583Z,9.80
2018-05-31T07:12:07.552Z,9.10
2018-05-31T07:14:35.689Z,8.97
2018-05-31T07:17:04.605Z,8.70
2018-05-31T07:19:32.729Z,8.70
2018-05-31T07:22:00.891Z,8.80
2018-05-31T07:24:29.095Z,8.90
2018-05-31T07:26:58.034Z,8.90
2018-05-31T07:29:26.222Z,9.10
2018-05-31T07:31:54.416Z,9.57
2018-05-31T07:34:23.318Z,7.60
2018-05-31T07:36:52.241Z,8.20
2018-05-31T07:39:20.416Z,8.83
2018-05-31T07:41:48.584Z,8.20
2018-05-31T07:44:16.779Z,9.67
2018-05-31T07:46:45.211Z,7.77
2018-05-31T07:49:13.438Z,7.37
2018-05-31T07:51:41.570Z,9.00
2018-05-31T07:54:09.766Z,8.20
2018-05-31T07:56:37.931Z,8.47
2018-05-31T07:59:06.135Z,8.50
2018-05-31T08:01:34.311Z,8.83
2018-05-31T08:04:03.258Z,8.30
2018-05-31T08:06:31.421Z,7.90
2018-05-31T08:08:59.618Z,8.23
2018-05-31T08:11:27.786Z,8.70
2018-05-31T08:13:55.968Z,8.40
2018-05-31T08:16:24.163Z,8.77
2018-05-31T08:18:52.331Z,9.13
2018-05-31T08:21:20.487Z,8.97
2018-05-31T08:23:48.673Z,8.70
2018-05-31T08:26:16.962Z,9.27
2018-05-31T08:28:45.154Z,9.27
2018-05-31T08:31:13.376Z,8.37
2018-05-31T08:33:41.547Z,8.07
2018-05-31T08:36:09.844Z,9.00
2018-05-31T08:38:37.983Z,8.40
2018-05-31T08:41:06.160Z,8.27
2018-05-31T08:43:34.321Z,8.77
2018-05-31T08:46:02.554Z,7.70
2018-05-31T08:48:32.225Z,8.13
2018-05-31T08:51:00.460Z,7.90
2018-05-31T08:53:29.382Z,8.27
2018-05-31T08:55:57.570Z,7.50
2018-05-31T08:58:25.747Z,8.83
2018-05-31T09:00:54.532Z,8.20
2018-05-31T09:03:22.698Z,7.70
2018-05-31T09:05:50.864Z,8.30
2018-05-31T09:08:19.021Z,7.40
2018-05-31T09:10:47.162Z,7.67
2018-05-31T09:13:15.367Z,8.50
2018-05-31T09:15:43.505Z,7.50
2018-05-31T09:18:11.638Z,7.20
2018-05-31T09:20:39.786Z,8.40
2018-05-31T09:23:07.939Z,7.87
2018-05-31T09:25:36.882Z,8.17
2018-05-31T09:28:05.026Z,7.90
2018-05-31T09:30:33.213Z,7.67
2018-05-31T09:33:01.342Z,7.60
2018-05-31T09:35:30.299Z,7.70
2018-05-31T09:37:58.495Z,7.87
2018-05-31T09:40:26.630Z,8.30
2018-05-31T09:42:55.374Z,6.67
2018-05-31T09:45:24.429Z,8.47
2018-05-31T09:47:52.638Z,8.17
2018-05-31T09:50:21.553Z,6.77
2018-05-31T09:52:49.853Z,7.13
2018-05-31T09:55:18.031Z,7.10
2018-05-31T09:57:46.892Z,8.37
2018-05-31T10:00:16.861Z,7.40
2018-05-31T10:02:45.052Z,7.23
2018-05-31T10:05:13.993Z,7.10
2018-05-31T10:07:42.125Z,6.93
2018-05-31T10:10:11.149Z,7.33
2018-05-31T10:12:39.297Z,7.73
2018-05-31T10:15:07.487Z,6.80
2018-05-31T10:17:35.662Z,6.47
2018-05-31T10:20:03.879Z,6.60
2018-05-31T10:22:32.048Z,7.20
2018-05-31T10:25:00.358Z,8.10
2018-05-31T10:27:28.517Z,6.47
2018-05-31T10:29:57.465Z,5.73
2018-05-31T10:32:25.709Z,7.20
2018-05-31T10:34:53.898Z,7.13
2018-05-31T10:37:22.053Z,6.73
2018-05-31T10:39:50.202Z,5.93
2018-05-31T10:42:19.123Z,5.27
2018-05-31T10:44:47.286Z,5.43
2018-05-31T10:47:15.441Z,5.63
2018-05-31T10:49:44.408Z,5.20
2018-05-31T10:52:12.575Z,5.57
2018-05-31T10:54:40.754Z,5.80
2018-05-31T10:57:08.882Z,4.93
2018-05-31T10:59:37.082Z,5.43
2018-05-31T11:02:05.242Z,4.57
2018-05-31T11:04:33.430Z,4.80
2018-05-31T11:07:02.187Z,4.60
2018-05-31T11:09:30.670Z,4.70
2018-05-31T11:11:58.885Z,4.63
2018-05-31T11:14:27.072Z,5.50
2018-05-31T11:16:55.982Z,4.97
2018-05-31T11:19:24.929Z,4.50
2018-05-31T11:21:53.041Z,5.23
2018-05-31T11:24:22.038Z,5.00
2018-05-31T11:26:51.016Z,4.63
2018-05-31T11:29:19.999Z,4.10
2018-05-31T11:31:48.115Z,4.87
2018-05-31T11:34:16.304Z,4.50
2018-05-31T11:36:44.443Z,4.60
2018-05-31T11:39:12.584Z,4.30
2018-05-31T11:41:40.826Z,4.20
2018-05-31T11:44:08.967Z,4.83
2018-05-31T11:46:37.100Z,3.70
2018-05-31T11:49:05.756Z,4.10
2018-05-31T11:51:34.646Z,4.57
2018-05-31T11:54:02.841Z,4.10
2018-05-31T11:56:30.975Z,4.07
2018-05-31T11:58:59.162Z,4.20
2018-05-31T12:01:27.297Z,3.93
2018-05-31T12:03:55.438Z,4.30
2018-05-31T12:06:23.619Z,5.00
2018-05-31T12:08:51.853Z,4.40
2018-05-31T12:11:19.990Z,4.00
2018-05-31T12:13:48.125Z,4.47
2018-05-31T12:16:16.283Z,4.87
2018-05-31T12:18:44.442Z,3.87
2018-05-31T12:24:10.178Z,3.62
2018-05-31T12:26:38.350Z,4.30
2018-05-31T12:29:06.515Z,3.47
2018-05-31T12:31:34.665Z,3.42
2018-05-31T12:34:02.785Z,3.72
2018-05-31T12:36:31.000Z,3.55
2018-05-31T12:38:59.904Z,3.50
2018-05-31T12:41:28.037Z,3.35
2018-05-31T12:43:56.483Z,2.90
2018-05-31T12:46:25.609Z,3.22
2018-05-31T12:48:53.850Z,2.60
2018-05-31T12:51:22.026Z,2.70
2018-05-31T12:53:50.186Z,3.05
2018-05-31T12:56:18.337Z,3.17
2018-05-31T12:58:46.530Z,3.25
2018-05-31T13:01:14.713Z,2.90
2018-05-31T13:03:42.998Z,3.05
2018-05-31T13:06:11.140Z,3.30
2018-05-31T13:08:39.291Z,3.47
2018-05-31T13:11:08.219Z,3.55
2018-05-31T13:13:36.405Z,3.50
2018-05-31T13:16:04.660Z,3.70
2018-05-31T13:18:32.799Z,3.80
2018-05-31T13:21:11.644Z,3.87
2018-05-31T13:23:39.803Z,3.70
2018-05-31T13:26:07.985Z,3.80
2018-05-31T13:28:36.203Z,3.95
2018-05-31T13:31:04.408Z,3.72
2018-05-31T13:33:33.353Z,3.65
2018-05-31T13:36:02.353Z,3.55
2018-05-31T13:38:30.584Z,3.58
2018-05-31T13:40:59.839Z,3.83
2018-05-31T13:43:41.019Z,3.70
2018-05-31T13:46:09.231Z,3.20
2018-05-31T13:48:38.895Z,2.95
2018-05-31T13:51:07.048Z,3.10
2018-05-31T13:53:35.258Z,2.90
2018-05-31T13:56:03.791Z,3.35
2018-05-31T13:58:31.968Z,3.10
2018-05-31T14:01:00.156Z,3.00
2018-05-31T14:03:30.259Z,3.33
2018-05-31T14:05:58.460Z,3.30
2018-05-31T14:08:26.635Z,3.10
2018-05-31T14:10:54.845Z,3.35
2018-05-31T14:13:23.779Z,3.72
2018-05-31T14:15:51.929Z,3.90
2018-05-31T14:18:20.771Z,3.95
2018-05-31T14:20:49.090Z,4.00
2018-05-31T14:23:17.219Z,3.78
2018-05-31T14:25:45.360Z,3.47
2018-05-31T14:28:13.500Z,3.80
2018-05-31T14:30:41.678Z,3.50
2018-05-31T14:33:09.800Z,3.33
2018-05-31T14:35:37.964Z,3.05
2018-05-31T14:38:06.143Z,3.47
2018-05-31T14:40:34.314Z,3.30
2018-05-31T14:43:02.499Z,3.12
2018-05-31T14:45:30.837Z,3.55
2018-05-31T14:47:59.003Z,3.40
2018-05-31T14:50:27.198Z,2.97
2018-05-31T14:52:55.547Z,3.97
2018-05-31T14:55:23.755Z,3.58
2018-05-31T14:57:51.911Z,3.72
2018-05-31T15:00:20.076Z,3.92
2018-05-31T15:02:48.246Z,3.42
2018-05-31T15:05:16.398Z,3.42
2018-05-31T15:07:44.576Z,3.97
2018-05-31T15:10:12.758Z,4.18
2018-05-31T15:12:40.981Z,3.47
2018-05-31T15:15:09.105Z,3.30
2018-05-31T15:17:37.286Z,3.42
2018-05-31T15:20:05.420Z,3.90
2018-05-31T15:22:34.449Z,4.22
2018-05-31T15:25:02.591Z,3.90
2018-05-31T15:27:31.531Z,4.20
2018-05-31T15:29:59.690Z,3.70
2018-05-31T15:38:22.256Z,4.70
2018-05-31T15:40:50.419Z,4.70
2018-05-31T15:43:18.609Z,5.87
2018-05-31T15:45:47.502Z,6.50
2018-05-31T15:48:15.666Z,6.10
2018-05-31T15:50:43.847Z,6.47
2018-05-31T15:53:11.993Z,7.50
2018-05-31T15:55:40.189Z,7.40
2018-05-31T15:58:08.345Z,7.63
2018-05-31T16:00:36.555Z,7.63
2018-05-31T16:03:04.665Z,7.63
2018-05-31T16:05:33.610Z,8.17
2018-05-31T16:08:02.602Z,7.87
2018-05-31T16:10:30.831Z,7.50
2018-05-31T16:12:59.889Z,8.30
2018-05-31T16:15:37.965Z,8.47
2018-05-31T16:18:06.125Z,9.50
2018-05-31T16:20:34.249Z,13.67
2018-05-31T16:23:02.440Z,9.13
2018-05-31T16:25:31.341Z,10.63
2018-05-31T16:28:00.248Z,9.47
2018-05-31T16:30:28.555Z,9.90
2018-05-31T16:32:56.700Z,8.73
2018-05-31T16:35:25.033Z,9.40
2018-05-31T16:37:53.312Z,10.90
2018-05-31T16:40:22.255Z,8.37
2018-05-31T16:42:50.429Z,8.53
2018-05-31T16:45:18.641Z,9.00
2018-05-31T16:47:46.879Z,10.50
2018-05-31T16:50:15.187Z,8.87
2018-05-31T16:52:43.903Z,8.27
2018-05-31T16:55:12.845Z,10.37
2018-05-31T16:57:41.008Z,9.70
2018-05-31T17:00:09.154Z,9.10
2018-05-31T17:02:37.293Z,9.20
2018-05-31T17:05:05.451Z,8.67
2018-05-31T17:07:33.580Z,8.47
2018-05-31T17:10:01.811Z,8.23
2018-05-31T17:12:30.778Z,7.90
2018-05-31T17:14:59.010Z,7.27
2018-05-31T17:17:27.162Z,6.17
2018-05-31T17:19:56.082Z,7.67
2018-05-31T17:22:24.248Z,7.10
2018-05-31T17:24:52.398Z,7.37
2018-05-31T17:27:21.358Z,7.73
2018-05-31T17:29:49.534Z,7.17
2018-05-31T17:32:17.727Z,7.50
2018-05-31T17:34:45.866Z,7.30
2018-05-31T17:37:14.005Z,5.90
2018-05-31T17:39:42.208Z,6.87
2018-05-31T17:42:10.396Z,6.47
2018-05-31T17:44:38.525Z,6.30
2018-05-31T17:47:06.687Z,6.17
2018-05-31T17:49:34.875Z,6.77
2018-05-31T17:52:03.034Z,7.47
2018-05-31T17:54:31.254Z,7.90
2018-05-31T17:56:59.392Z,6.57
2018-05-31T17:59:27.830Z,7.37
2018-05-31T18:01:57.289Z,7.50
2018-05-31T18:04:25.441Z,7.80
2018-05-31T18:06:53.622Z,7.10
2018-05-31T18:09:21.829Z,7.47
2018-05-31T18:11:50.001Z,7.47
2018-05-31T18:14:18.226Z,6.77
2018-05-31T18:16:47.115Z,7.97
2018-05-31T18:19:15.344Z,7.50
2018-05-31T18:21:43.698Z,7.73
2018-05-31T18:24:12.230Z,7.67
2018-05-31T18:26:41.157Z,6.93
2018-05-31T18:29:09.806Z,7.60
2018-05-31T18:31:38.709Z,8.27
2018-05-31T18:34:07.639Z,7.53
2018-05-31T18:36:35.798Z,7.90
2018-05-31T18:39:03.924Z,8.10
2018-05-31T18:41:32.896Z,8.53
2018-05-31T18:44:01.090Z,8.47
2018-05-31T18:46:30.119Z,7.67
2018-05-31T18:48:58.339Z,8.60
2018-05-31T18:51:26.591Z,7.67
2018-05-31T18:53:55.210Z,7.70
2018-05-31T18:56:23.386Z,8.47
2018-05-31T18:58:52.335Z,9.00
2018-05-31T19:01:20.483Z,7.80
2018-05-31T19:03:48.654Z,7.90
2018-05-31T19:06:16.789Z,8.80
2018-05-31T19:08:45.003Z,8.50
2018-05-31T19:11:13.192Z,8.07
2018-05-31T19:13:46.972Z,8.03
2018-05-31T19:16:15.187Z,8.17
2018-05-31T19:18:48.838Z,8.70
2018-05-31T19:21:16.995Z,8.07
2018-05-31T19:23:49.474Z,7.80
2018-05-31T19:26:17.619Z,7.57
2018-05-31T19:28:45.919Z,7.90
2018-05-31T19:31:32.689Z,7.97
2018-05-31T19:34:00.841Z,7.80
2018-05-31T19:36:34.654Z,8.00
2018-05-31T19:39:04.206Z,9.40
2018-05-31T19:41:32.632Z,9.30
2018-05-31T19:44:06.502Z,8.33
2018-05-31T19:46:35.491Z,8.37
2018-05-31T19:49:04.442Z,8.80
2018-05-31T19:51:38.216Z,8.10
2018-05-31T19:54:06.397Z,9.33
2018-05-31T19:56:34.529Z,9.83
2018-05-31T19:59:09.319Z,7.67
2018-05-31T20:01:43.071Z,8.27
2018-05-31T20:04:12.020Z,7.30
2018-05-31T20:06:40.173Z,7.80
2018-05-31T20:09:08.345Z,8.13
2018-05-31T20:11:36.673Z,8.97
2018-05-31T20:14:04.903Z,7.50
2018-05-31T20:16:33.569Z,7.87
2018-05-31T20:19:01.870Z,7.90
2018-05-31T20:21:30.040Z,7.50
2018-05-31T20:23:58.199Z,8.40
2018-05-31T20:26:26.480Z,10.23
2018-05-31T20:29:05.308Z,11.20
2018-05-31T20:31:33.446Z,7.50
2018-05-31T20:34:01.633Z,8.50
2018-05-31T20:36:29.830Z,7.37
2018-05-31T20:38:58.137Z,9.30
2018-05-31T20:41:26.346Z,8.17
2018-05-31T20:43:54.471Z,8.47
2018-05-31T20:46:22.679Z,7.97
2018-05-31T20:48:50.836Z,7.30
2018-05-31T20:51:19.804Z,6.87
2018-05-31T20:53:47.966Z,6.90
2018-05-31T20:56:16.156Z,7.07
2018-05-31T20:58:44.304Z,6.50
2018-05-31T21:01:12.440Z,7.17
2018-05-31T21:03:40.605Z,7.23
2018-05-31T21:06:09.918Z,7.27
2018-05-31T21:08:38.059Z,6.80
2018-05-31T21:11:06.312Z,6.87
2018-05-31T21:13:34.531Z,6.90
2018-05-31T21:16:02.712Z,8.73
2018-05-31T21:18:30.861Z,6.93
2018-05-31T21:20:59.770Z,6.17
2018-05-31T21:23:27.957Z,7.37
2018-05-31T21:25:56.141Z,7.47
2018-05-31T21:28:24.350Z,7.10
2018-05-31T21:30:52.527Z,7.10
2018-05-31T21:33:20.673Z,8.03
2018-05-31T21:35:48.833Z,7.47
2018-05-31T21:38:17.479Z,7.77
2018-05-31T21:40:46.381Z,8.03
2018-05-31T21:43:15.267Z,8.13
2018-05-31T21:45:43.455Z,8.23
2018-05-31T21:48:11.635Z,7.80
2018-05-31T21:50:39.772Z,8.07
2018-05-31T21:53:08.688Z,7.40
2018-05-31T21:55:36.888Z,7.80
2018-05-31T21:58:05.100Z,8.20
2018-05-31T22:00:39.626Z,7.87
2018-05-31T22:03:08.524Z,8.70
2018-05-31T22:05:37.439Z,8.83
2018-05-31T22:08:05.691Z,9.43
2018-05-31T22:10:33.834Z,9.07
2018-05-31T22:13:02.091Z,8.83
2018-05-31T22:15:30.369Z,8.37
2018-05-31T22:17:58.621Z,9.30
2018-05-31T22:20:26.802Z,8.53
2018-05-31T22:22:55.066Z,8.40
2018-05-31T22:25:23.226Z,8.87
2018-05-31T22:27:51.448Z,9.63
2018-05-31T22:30:19.638Z,8.20
2018-05-31T22:32:47.855Z,8.73
2018-05-31T22:35:16.791Z,9.30
2018-05-31T22:37:44.974Z,10.03
2018-05-31T22:40:13.210Z,8.90
2018-05-31T22:42:41.394Z,9.10
2018-05-31T22:45:09.559Z,9.20
2018-05-31T22:47:37.732Z,9.27
2018-05-31T22:50:05.914Z,10.30
2018-05-31T22:52:34.182Z,9.20
2018-05-31T22:55:02.353Z,9.77
2018-05-31T22:57:30.689Z,9.50
2018-05-31T22:59:58.906Z,9.47
2018-05-31T23:02:27.064Z,8.87
2018-05-31T23:04:55.270Z,9.20
2018-05-31T23:07:23.444Z,9.50
2018-05-31T23:09:51.706Z,10.10
2018-05-31T23:12:19.977Z,10.40
2018-05-31T23:14:48.150Z,9.43
2018-05-31T23:17:16.397Z,9.83
2018-05-31T23:19:44.621Z,10.40
2018-05-31T23:22:12.770Z,9.10
2018-05-31T23:24:40.931Z,9.60
2018-05-31T23:27:09.162Z,10.63
2018-05-31T23:29:38.094Z,10.37
2018-05-31T23:32:06.255Z,10.30
2018-05-31T23:34:34.430Z,10.80
